sensor_id;sensor_type;location;lat;lon;timestamp;P1;durP1;ratioP1;P2;durP2;ratioP2
17710;SDS011;8975;57.718;12.134;2022-12-24T00:01:09;1.07;;;0.00;;
17710;SDS011;8975;57.718;12.134;2022-12-24T00:03:35;0.77;;;0.00;;
17710;SDS011;8975;57.718;12.134;2022-12-24T00:06:07;1.53;;;0.00;;
17710;SDS011;8975;57.718;12.134;2022-12-24T00:08:37;0.70;;;0.00;;
17710;SDS011;8975;57.718;12.134;2022-12-24T00:11:05;1.07;;;0.00;;
17710;SDS011;8975;57.718;12.134;2022-12-24T00:13:31;1.50;;;0.00;;
17710;SDS011;8975;57.718;12.134;2022-12-24T00:15:57;1.93;;;0.00;;
17710;SDS011;8975;57.718;12.134;2022-12-24T00:18:23;1.20;;;0.00;;
17710;SDS011;8975;57.718;12.134;2022-12-24T00:20:48;1.10;;;0.00;;
17710;SDS011;8975;57.718;12.134;2022-12-24T00:23:14;0.93;;;0.00;;
17710;SDS011;8975;57.718;12.134;2022-12-24T00:25:40;0.87;;;0.00;;
17710;SDS011;8975;57.718;12.134;2022-12-24T00:28:05;0.43;;;0.00;;
17710;SDS011;8975;57.718;12.134;2022-12-24T00:30:31;0.97;;;0.00;;
17710;SDS011;8975;57.718;12.134;2022-12-24T00:32:56;0.67;;;0.00;;
17710;SDS011;8975;57.718;12.134;2022-12-24T00:35:22;0.50;;;0.00;;
17710;SDS011;8975;57.718;12.134;2022-12-24T00:37:48;0.43;;;0.00;;
17710;SDS011;8975;57.718;12.134;2022-12-24T00:40:14;0.50;;;0.00;;
17710;SDS011;8975;57.718;12.134;2022-12-24T00:42:40;0.87;;;0.00;;
17710;SDS011;8975;57.718;12.134;2022-12-24T00:45:06;0.70;;;0.00;;
17710;SDS011;8975;57.718;12.134;2022-12-24T00:47:32;0.60;;;0.00;;
17710;SDS011;8975;57.718;12.134;2022-12-24T00:49:58;0.67;;;0.00;;
17710;SDS011;8975;57.718;12.134;2022-12-24T00:52:23;0.73;;;0.00;;
17710;SDS011;8975;57.718;12.134;2022-12-24T00:54:48;0.70;;;0.00;;
17710;SDS011;8975;57.718;12.134;2022-12-24T00:57:14;1.00;;;0.00;;
17710;SDS011;8975;57.718;12.134;2022-12-24T00:59:39;0.90;;;0.00;;
17710;SDS011;8975;57.718;12.134;2022-12-24T01:02:05;0.70;;;0.00;;
17710;SDS011;8975;57.718;12.134;2022-12-24T01:04:30;0.90;;;0.00;;
17710;SDS011;8975;57.718;12.134;2022-12-24T01:07:14;0.60;;;0.00;;
17710;SDS011;8975;57.718;12.134;2022-12-24T01:09:39;0.40;;;0.00;;
17710;SDS011;8975;57.718;12.134;2022-12-24T01:12:05;1.67;;;0.00;;
17710;SDS011;8975;57.718;12.134;2022-12-24T01:14:30;0.80;;;0.00;;
17710;SDS011;8975;57.718;12.134;2022-12-24T01:16:56;0.50;;;0.00;;
17710;SDS011;8975;57.718;12.134;2022-12-24T01:19:21;0.63;;;0.00;;
17710;SDS011;8975;57.718;12.134;2022-12-24T01:21:47;0.70;;;0.00;;
17710;SDS011;8975;57.718;12.134;2022-12-24T01:24:15;0.67;;;0.00;;
17710;SDS011;8975;57.718;12.134;2022-12-24T01:26:41;363.97;;;0.00;;
17710;SDS011;8975;57.718;12.134;2022-12-24T01:29:07;391.92;;;0.00;;
17710;SDS011;8975;57.718;12.134;2022-12-24T01:31:33;390.83;;;0.00;;
17710;SDS011;8975;57.718;12.134;2022-12-24T01:33:58;395.73;;;0.00;;
17710;SDS011;8975;57.718;12.134;2022-12-24T01:36:24;396.98;;;0.00;;
17710;SDS011;8975;57.718;12.134;2022-12-24T01:38:49;396.88;;;0.00;;
17710;SDS011;8975;57.718;12.134;2022-12-24T01:41:15;396.47;;;0.00;;
17710;SDS011;8975;57.718;12.134;2022-12-24T01:44:17;403.00;;;0.00;;
17710;SDS011;8975;57.718;12.134;2022-12-24T01:46:42;418.23;;;0.00;;
17710;SDS011;8975;57.718;12.134;2022-12-24T01:49:10;418.03;;;0.00;;
17710;SDS011;8975;57.718;12.134;2022-12-24T01:51:42;418.13;;;0.00;;
17710;SDS011;8975;57.718;12.134;2022-12-24T01:54:55;416.27;;;0.00;;
17710;SDS011;8975;57.718;12.134;2022-12-24T01:57:08;414.67;;;0.00;;
17710;SDS011;8975;57.718;12.134;2022-12-24T01:59:39;424.58;;;0.00;;
17710;SDS011;8975;57.718;12.134;2022-12-24T02:02:08;419.10;;;0.00;;
17710;SDS011;8975;57.718;12.134;2022-12-24T02:04:52;414.95;;;0.00;;
17710;SDS011;8975;57.718;12.134;2022-12-24T02:07:24;413.60;;;0.00;;
17710;SDS011;8975;57.718;12.134;2022-12-24T02:09:51;409.47;;;0.00;;
17710;SDS011;8975;57.718;12.134;2022-12-24T02:12:20;410.00;;;0.00;;
17710;SDS011;8975;57.718;12.134;2022-12-24T02:14:46;410.40;;;0.00;;
17710;SDS011;8975;57.718;12.134;2022-12-24T02:26:17;405.10;;;0.00;;
17710;SDS011;8975;57.718;12.134;2022-12-24T02:31:43;416.45;;;0.00;;
17710;SDS011;8975;57.718;12.134;2022-12-24T02:34:18;419.65;;;0.00;;
17710;SDS011;8975;57.718;12.134;2022-12-24T02:37:07;418.48;;;0.00;;
17710;SDS011;8975;57.718;12.134;2022-12-24T02:39:46;422.60;;;0.00;;
17710;SDS011;8975;57.718;12.134;2022-12-24T02:42:16;424.75;;;0.00;;
17710;SDS011;8975;57.718;12.134;2022-12-24T02:44:48;419.75;;;0.00;;
17710;SDS011;8975;57.718;12.134;2022-12-24T02:47:18;414.48;;;0.00;;
17710;SDS011;8975;57.718;12.134;2022-12-24T02:49:47;419.65;;;0.00;;
17710;SDS011;8975;57.718;12.134;2022-12-24T02:55:01;416.95;;;0.00;;
17710;SDS011;8975;57.718;12.134;2022-12-24T03:00:22;418.70;;;0.00;;
17710;SDS011;8975;57.718;12.134;2022-12-24T03:08:29;418.80;;;0.00;;
17710;SDS011;8975;57.718;12.134;2022-12-24T03:13:33;417.88;;;0.00;;
17710;SDS011;8975;57.718;12.134;2022-12-24T03:15:58;422.63;;;0.00;;
17710;SDS011;8975;57.718;12.134;2022-12-24T03:18:27;421.75;;;0.00;;
17710;SDS011;8975;57.718;12.134;2022-12-24T03:21:03;417.95;;;0.00;;
17710;SDS011;8975;57.718;12.134;2022-12-24T03:23:33;419.27;;;0.00;;
17710;SDS011;8975;57.718;12.134;2022-12-24T03:25:59;419.23;;;0.00;;
17710;SDS011;8975;57.718;12.134;2022-12-24T03:28:28;416.88;;;0.00;;
17710;SDS011;8975;57.718;12.134;2022-12-24T03:30:54;422.27;;;0.00;;
17710;SDS011;8975;57.718;12.134;2022-12-24T03:33:20;420.30;;;0.00;;
17710;SDS011;8975;57.718;12.134;2022-12-24T03:35:45;422.23;;;0.00;;
17710;SDS011;8975;57.718;12.134;2022-12-24T03:38:11;418.20;;;0.00;;
17710;SDS011;8975;57.718;12.134;2022-12-24T03:40:37;417.73;;;0.00;;
17710;SDS011;8975;57.718;12.134;2022-12-24T03:43:02;422.17;;;0.00;;
17710;SDS011;8975;57.718;12.134;2022-12-24T03:45:28;413.00;;;0.00;;
17710;SDS011;8975;57.718;12.134;2022-12-24T03:47:54;414.85;;;0.00;;
17710;SDS011;8975;57.718;12.134;2022-12-24T03:50:19;434.05;;;0.00;;
17710;SDS011;8975;57.718;12.134;2022-12-24T03:52:44;428.67;;;0.00;;
17710;SDS011;8975;57.718;12.134;2022-12-24T03:55:10;429.40;;;0.00;;
17710;SDS011;8975;57.718;12.134;2022-12-24T03:57:35;427.08;;;0.00;;
17710;SDS011;8975;57.718;12.134;2022-12-24T04:00:01;424.58;;;0.00;;
17710;SDS011;8975;57.718;12.134;2022-12-24T04:02:28;430.98;;;0.00;;
17710;SDS011;8975;57.718;12.134;2022-12-24T04:04:54;430.90;;;0.00;;
17710;SDS011;8975;57.718;12.134;2022-12-24T04:07:19;427.97;;;0.00;;
17710;SDS011;8975;57.718;12.134;2022-12-24T04:09:45;427.53;;;0.00;;
17710;SDS011;8975;57.718;12.134;2022-12-24T04:12:10;432.37;;;0.00;;
17710;SDS011;8975;57.718;12.134;2022-12-24T04:14:35;434.67;;;0.00;;
17710;SDS011;8975;57.718;12.134;2022-12-24T04:17:01;431.80;;;0.00;;
17710;SDS011;8975;57.718;12.134;2022-12-24T04:19:26;430.90;;;0.00;;
17710;SDS011;8975;57.718;12.134;2022-12-24T04:21:52;426.00;;;0.00;;
17710;SDS011;8975;57.718;12.134;2022-12-24T04:24:17;421.73;;;0.00;;
17710;SDS011;8975;57.718;12.134;2022-12-24T04:26:42;428.17;;;0.00;;
17710;SDS011;8975;57.718;12.134;2022-12-24T04:29:08;425.52;;;0.00;;
17710;SDS011;8975;57.718;12.134;2022-12-24T04:31:33;420.50;;;0.00;;
17710;SDS011;8975;57.718;12.134;2022-12-24T04:33:59;421.85;;;0.00;;
17710;SDS011;8975;57.718;12.134;2022-12-24T04:36:24;418.63;;;0.00;;
17710;SDS011;8975;57.718;12.134;2022-12-24T04:38:50;423.53;;;0.00;;
17710;SDS011;8975;57.718;12.134;2022-12-24T04:41:18;421.17;;;0.00;;
17710;SDS011;8975;57.718;12.134;2022-12-24T04:43:45;424.52;;;0.00;;
17710;SDS011;8975;57.718;12.134;2022-12-24T04:46:13;420.92;;;0.00;;
17710;SDS011;8975;57.718;12.134;2022-12-24T04:48:42;417.25;;;0.00;;
17710;SDS011;8975;57.718;12.134;2022-12-24T04:51:08;421.30;;;0.00;;
17710;SDS011;8975;57.718;12.134;2022-12-24T04:53:34;419.33;;;0.00;;
17710;SDS011;8975;57.718;12.134;2022-12-24T04:56:00;416.15;;;0.00;;
17710;SDS011;8975;57.718;12.134;2022-12-24T04:58:27;413.02;;;0.00;;
17710;SDS011;8975;57.718;12.134;2022-12-24T05:00:52;416.08;;;0.00;;
17710;SDS011;8975;57.718;12.134;2022-12-24T05:03:18;414.92;;;0.00;;
17710;SDS011;8975;57.718;12.134;2022-12-24T05:05:44;417.97;;;0.00;;
17710;SDS011;8975;57.718;12.134;2022-12-24T05:08:09;419.37;;;0.00;;
17710;SDS011;8975;57.718;12.134;2022-12-24T05:10:35;414.60;;;0.00;;
17710;SDS011;8975;57.718;12.134;2022-12-24T05:13:00;415.23;;;0.00;;
17710;SDS011;8975;57.718;12.134;2022-12-24T05:15:26;413.35;;;0.00;;
17710;SDS011;8975;57.718;12.134;2022-12-24T05:17:51;412.67;;;0.00;;
17710;SDS011;8975;57.718;12.134;2022-12-24T05:20:17;412.87;;;0.00;;
17710;SDS011;8975;57.718;12.134;2022-12-24T05:22:42;416.70;;;0.00;;
17710;SDS011;8975;57.718;12.134;2022-12-24T05:25:27;413.92;;;0.00;;
17710;SDS011;8975;57.718;12.134;2022-12-24T05:28:16;412.23;;;0.00;;
17710;SDS011;8975;57.718;12.134;2022-12-24T05:30:42;415.27;;;0.00;;
17710;SDS011;8975;57.718;12.134;2022-12-24T05:33:07;416.03;;;0.00;;
17710;SDS011;8975;57.718;12.134;2022-12-24T05:35:33;417.73;;;0.00;;
17710;SDS011;8975;57.718;12.134;2022-12-24T05:37:58;415.23;;;0.00;;
17710;SDS011;8975;57.718;12.134;2022-12-24T05:40:24;410.97;;;0.00;;
17710;SDS011;8975;57.718;12.134;2022-12-24T05:42:49;415.85;;;0.00;;
17710;SDS011;8975;57.718;12.134;2022-12-24T05:45:15;415.23;;;0.00;;
17710;SDS011;8975;57.718;12.134;2022-12-24T05:47:40;413.07;;;0.00;;
17710;SDS011;8975;57.718;12.134;2022-12-24T05:50:06;420.77;;;0.00;;
17710;SDS011;8975;57.718;12.134;2022-12-24T05:52:32;416.40;;;0.00;;
17710;SDS011;8975;57.718;12.134;2022-12-24T05:54:57;417.70;;;0.00;;
17710;SDS011;8975;57.718;12.134;2022-12-24T05:57:23;419.03;;;0.00;;
17710;SDS011;8975;57.718;12.134;2022-12-24T05:59:48;419.87;;;0.00;;
17710;SDS011;8975;57.718;12.134;2022-12-24T06:02:14;426.07;;;0.00;;
17710;SDS011;8975;57.718;12.134;2022-12-24T06:04:39;418.95;;;0.00;;
17710;SDS011;8975;57.718;12.134;2022-12-24T06:07:04;421.52;;;0.00;;
17710;SDS011;8975;57.718;12.134;2022-12-24T06:09:30;416.88;;;0.00;;
17710;SDS011;8975;57.718;12.134;2022-12-24T06:11:55;423.60;;;0.00;;
17710;SDS011;8975;57.718;12.134;2022-12-24T06:14:21;417.30;;;0.00;;
17710;SDS011;8975;57.718;12.134;2022-12-24T06:16:46;424.33;;;0.00;;
17710;SDS011;8975;57.718;12.134;2022-12-24T06:19:11;424.90;;;0.00;;
17710;SDS011;8975;57.718;12.134;2022-12-24T06:21:37;416.23;;;0.00;;
17710;SDS011;8975;57.718;12.134;2022-12-24T06:24:02;419.87;;;0.00;;
17710;SDS011;8975;57.718;12.134;2022-12-24T06:26:28;417.57;;;0.00;;
17710;SDS011;8975;57.718;12.134;2022-12-24T06:28:53;420.23;;;0.00;;
17710;SDS011;8975;57.718;12.134;2022-12-24T06:31:19;417.00;;;0.00;;
17710;SDS011;8975;57.718;12.134;2022-12-24T06:33:46;423.83;;;0.00;;
17710;SDS011;8975;57.718;12.134;2022-12-24T06:36:13;423.45;;;0.00;;
17710;SDS011;8975;57.718;12.134;2022-12-24T06:38:41;420.30;;;0.00;;
17710;SDS011;8975;57.718;12.134;2022-12-24T06:41:07;423.85;;;0.00;;
17710;SDS011;8975;57.718;12.134;2022-12-24T06:43:32;422.50;;;0.00;;
17710;SDS011;8975;57.718;12.134;2022-12-24T06:45:59;417.48;;;0.00;;
17710;SDS011;8975;57.718;12.134;2022-12-24T06:48:25;418.08;;;0.00;;
17710;SDS011;8975;57.718;12.134;2022-12-24T06:50:51;425.67;;;0.00;;
17710;SDS011;8975;57.718;12.134;2022-12-24T06:53:17;418.67;;;0.00;;
17710;SDS011;8975;57.718;12.134;2022-12-24T06:55:42;421.23;;;0.00;;
17710;SDS011;8975;57.718;12.134;2022-12-24T06:58:08;415.30;;;0.00;;
17710;SDS011;8975;57.718;12.134;2022-12-24T07:00:34;415.63;;;0.00;;
17710;SDS011;8975;57.718;12.134;2022-12-24T07:03:00;420.63;;;0.00;;
17710;SDS011;8975;57.718;12.134;2022-12-24T07:05:26;420.17;;;0.00;;
17710;SDS011;8975;57.718;12.134;2022-12-24T07:07:52;417.08;;;0.00;;
17710;SDS011;8975;57.718;12.134;2022-12-24T07:10:18;420.10;;;0.00;;
17710;SDS011;8975;57.718;12.134;2022-12-24T07:12:44;413.48;;;0.00;;
17710;SDS011;8975;57.718;12.134;2022-12-24T07:15:10;422.05;;;0.00;;
17710;SDS011;8975;57.718;12.134;2022-12-24T07:17:37;419.63;;;0.00;;
17710;SDS011;8975;57.718;12.134;2022-12-24T07:20:03;415.40;;;0.00;;
17710;SDS011;8975;57.718;12.134;2022-12-24T07:22:30;413.95;;;0.00;;
17710;SDS011;8975;57.718;12.134;2022-12-24T07:24:56;414.90;;;0.00;;
17710;SDS011;8975;57.718;12.134;2022-12-24T07:27:21;415.97;;;0.00;;
17710;SDS011;8975;57.718;12.134;2022-12-24T07:29:46;420.83;;;0.00;;
17710;SDS011;8975;57.718;12.134;2022-12-24T07:32:12;417.45;;;0.00;;
17710;SDS011;8975;57.718;12.134;2022-12-24T07:34:38;412.70;;;0.00;;
17710;SDS011;8975;57.718;12.134;2022-12-24T07:37:04;417.73;;;0.00;;
17710;SDS011;8975;57.718;12.134;2022-12-24T07:39:29;419.15;;;0.00;;
17710;SDS011;8975;57.718;12.134;2022-12-24T07:41:55;419.30;;;0.00;;
17710;SDS011;8975;57.718;12.134;2022-12-24T07:44:20;418.03;;;0.00;;
17710;SDS011;8975;57.718;12.134;2022-12-24T07:46:46;418.17;;;0.00;;
17710;SDS011;8975;57.718;12.134;2022-12-24T07:49:11;413.97;;;0.00;;
17710;SDS011;8975;57.718;12.134;2022-12-24T07:51:37;415.63;;;0.00;;
17710;SDS011;8975;57.718;12.134;2022-12-24T07:54:03;415.42;;;0.00;;
17710;SDS011;8975;57.718;12.134;2022-12-24T07:56:29;414.75;;;0.00;;
17710;SDS011;8975;57.718;12.134;2022-12-24T07:58:55;416.30;;;0.00;;
17710;SDS011;8975;57.718;12.134;2022-12-24T08:01:21;417.13;;;0.00;;
17710;SDS011;8975;57.718;12.134;2022-12-24T08:03:46;414.57;;;0.00;;
17710;SDS011;8975;57.718;12.134;2022-12-24T08:06:12;417.88;;;0.00;;
17710;SDS011;8975;57.718;12.134;2022-12-24T08:08:37;414.73;;;0.00;;
17710;SDS011;8975;57.718;12.134;2022-12-24T08:11:04;420.00;;;0.00;;
17710;SDS011;8975;57.718;12.134;2022-12-24T08:13:31;418.70;;;0.00;;
17710;SDS011;8975;57.718;12.134;2022-12-24T08:15:56;423.80;;;0.00;;
17710;SDS011;8975;57.718;12.134;2022-12-24T08:18:22;422.37;;;0.00;;
17710;SDS011;8975;57.718;12.134;2022-12-24T08:20:48;419.58;;;0.00;;
17710;SDS011;8975;57.718;12.134;2022-12-24T08:23:13;426.17;;;0.00;;
17710;SDS011;8975;57.718;12.134;2022-12-24T08:25:46;423.40;;;0.00;;
17710;SDS011;8975;57.718;12.134;2022-12-24T08:28:13;422.02;;;0.00;;
17710;SDS011;8975;57.718;12.134;2022-12-24T08:30:40;421.98;;;0.00;;
17710;SDS011;8975;57.718;12.134;2022-12-24T08:33:05;413.40;;;0.00;;
17710;SDS011;8975;57.718;12.134;2022-12-24T08:35:31;411.20;;;0.00;;
17710;SDS011;8975;57.718;12.134;2022-12-24T08:37:57;419.93;;;0.00;;
17710;SDS011;8975;57.718;12.134;2022-12-24T08:40:23;420.60;;;0.00;;
17710;SDS011;8975;57.718;12.134;2022-12-24T08:42:48;419.20;;;0.00;;
17710;SDS011;8975;57.718;12.134;2022-12-24T08:45:14;418.13;;;0.00;;
17710;SDS011;8975;57.718;12.134;2022-12-24T08:47:39;413.03;;;0.00;;
17710;SDS011;8975;57.718;12.134;2022-12-24T08:50:05;420.88;;;0.00;;
17710;SDS011;8975;57.718;12.134;2022-12-24T08:52:32;415.85;;;0.00;;
17710;SDS011;8975;57.718;12.134;2022-12-24T08:54:57;417.05;;;0.00;;
17710;SDS011;8975;57.718;12.134;2022-12-24T08:57:22;418.87;;;0.00;;
17710;SDS011;8975;57.718;12.134;2022-12-24T08:59:48;416.80;;;0.00;;
17710;SDS011;8975;57.718;12.134;2022-12-24T09:02:14;422.63;;;0.00;;
17710;SDS011;8975;57.718;12.134;2022-12-24T09:04:39;421.65;;;0.00;;
17710;SDS011;8975;57.718;12.134;2022-12-24T09:07:08;416.75;;;0.00;;
17710;SDS011;8975;57.718;12.134;2022-12-24T09:09:35;422.67;;;0.00;;
17710;SDS011;8975;57.718;12.134;2022-12-24T09:12:02;424.38;;;0.00;;
17710;SDS011;8975;57.718;12.134;2022-12-24T09:14:30;424.77;;;0.00;;
17710;SDS011;8975;57.718;12.134;2022-12-24T09:16:55;427.23;;;0.00;;
17710;SDS011;8975;57.718;12.134;2022-12-24T09:19:20;426.70;;;0.00;;
17710;SDS011;8975;57.718;12.134;2022-12-24T09:21:46;426.90;;;0.00;;
17710;SDS011;8975;57.718;12.134;2022-12-24T09:24:12;420.60;;;0.00;;
17710;SDS011;8975;57.718;12.134;2022-12-24T09:26:39;417.25;;;0.00;;
17710;SDS011;8975;57.718;12.134;2022-12-24T09:29:05;422.48;;;0.00;;
17710;SDS011;8975;57.718;12.134;2022-12-24T09:31:31;420.33;;;0.00;;
17710;SDS011;8975;57.718;12.134;2022-12-24T09:33:57;422.80;;;0.00;;
17710;SDS011;8975;57.718;12.134;2022-12-24T09:36:23;423.97;;;0.00;;
17710;SDS011;8975;57.718;12.134;2022-12-24T09:38:48;423.33;;;0.00;;
17710;SDS011;8975;57.718;12.134;2022-12-24T09:44:03;423.67;;;0.00;;
17710;SDS011;8975;57.718;12.134;2022-12-24T09:46:44;422.83;;;0.00;;
17710;SDS011;8975;57.718;12.134;2022-12-24T09:49:19;420.02;;;0.00;;
17710;SDS011;8975;57.718;12.134;2022-12-24T09:51:51;417.08;;;0.00;;
17710;SDS011;8975;57.718;12.134;2022-12-24T09:56:49;422.13;;;0.00;;
17710;SDS011;8975;57.718;12.134;2022-12-24T09:59:17;418.23;;;0.00;;
17710;SDS011;8975;57.718;12.134;2022-12-24T10:01:46;413.58;;;0.00;;
17710;SDS011;8975;57.718;12.134;2022-12-24T10:04:15;411.27;;;0.00;;
17710;SDS011;8975;57.718;12.134;2022-12-24T10:06:49;424.60;;;0.00;;
17710;SDS011;8975;57.718;12.134;2022-12-24T10:21:10;423.50;;;0.00;;
17710;SDS011;8975;57.718;12.134;2022-12-24T10:24:05;422.40;;;0.00;;
17710;SDS011;8975;57.718;12.134;2022-12-24T10:26:43;421.33;;;0.00;;
17710;SDS011;8975;57.718;12.134;2022-12-24T10:32:04;428.00;;;0.00;;
17710;SDS011;8975;57.718;12.134;2022-12-24T10:34:45;425.58;;;0.00;;
17710;SDS011;8975;57.718;12.134;2022-12-24T10:37:27;427.25;;;0.00;;
17710;SDS011;8975;57.718;12.134;2022-12-24T10:39:54;427.67;;;0.00;;
17710;SDS011;8975;57.718;12.134;2022-12-24T10:42:22;437.85;;;0.00;;
17710;SDS011;8975;57.718;12.134;2022-12-24T10:45:00;427.23;;;0.00;;
17710;SDS011;8975;57.718;12.134;2022-12-24T10:47:28;429.17;;;0.00;;
17710;SDS011;8975;57.718;12.134;2022-12-24T10:49:56;425.30;;;0.00;;
17710;SDS011;8975;57.718;12.134;2022-12-24T10:52:28;424.17;;;0.00;;
17710;SDS011;8975;57.718;12.134;2022-12-24T10:57:46;423.20;;;0.00;;
17710;SDS011;8975;57.718;12.134;2022-12-24T11:00:28;419.13;;;0.00;;
17710;SDS011;8975;57.718;12.134;2022-12-24T11:05:36;422.88;;;0.00;;
17710;SDS011;8975;57.718;12.134;2022-12-24T11:08:02;421.43;;;0.00;;
17710;SDS011;8975;57.718;12.134;2022-12-24T11:10:39;418.95;;;0.00;;
17710;SDS011;8975;57.718;12.134;2022-12-24T11:13:25;421.90;;;0.00;;
17710;SDS011;8975;57.718;12.134;2022-12-24T11:18:46;421.15;;;0.00;;
17710;SDS011;8975;57.718;12.134;2022-12-24T11:21:18;419.25;;;0.00;;
17710;SDS011;8975;57.718;12.134;2022-12-24T11:23:55;420.73;;;0.00;;
17710;SDS011;8975;57.718;12.134;2022-12-24T11:26:24;420.38;;;0.00;;
17710;SDS011;8975;57.718;12.134;2022-12-24T11:31:28;421.27;;;0.00;;
17710;SDS011;8975;57.718;12.134;2022-12-24T11:33:56;420.75;;;0.00;;
17710;SDS011;8975;57.718;12.134;2022-12-24T11:36:23;422.88;;;0.00;;
17710;SDS011;8975;57.718;12.134;2022-12-24T11:38:56;423.42;;;0.00;;
17710;SDS011;8975;57.718;12.134;2022-12-24T11:41:22;423.20;;;0.00;;
17710;SDS011;8975;57.718;12.134;2022-12-24T11:43:50;423.48;;;0.00;;
17710;SDS011;8975;57.718;12.134;2022-12-24T11:51:37;424.73;;;0.00;;
17710;SDS011;8975;57.718;12.134;2022-12-24T11:54:21;425.67;;;0.00;;
17710;SDS011;8975;57.718;12.134;2022-12-24T11:56:52;424.90;;;0.00;;
17710;SDS011;8975;57.718;12.134;2022-12-24T11:59:30;424.27;;;0.00;;
17710;SDS011;8975;57.718;12.134;2022-12-24T12:04:28;424.40;;;0.00;;
17710;SDS011;8975;57.718;12.134;2022-12-24T12:07:09;425.65;;;0.00;;
17710;SDS011;8975;57.718;12.134;2022-12-24T12:09:49;425.85;;;0.00;;
17710;SDS011;8975;57.718;12.134;2022-12-24T12:12:23;430.95;;;0.00;;
17710;SDS011;8975;57.718;12.134;2022-12-24T12:14:54;425.85;;;0.00;;
17710;SDS011;8975;57.718;12.134;2022-12-24T12:20:22;423.40;;;0.00;;
17710;SDS011;8975;57.718;12.134;2022-12-24T12:25:43;424.27;;;0.00;;
17710;SDS011;8975;57.718;12.134;2022-12-24T12:31:01;425.45;;;0.00;;
17710;SDS011;8975;57.718;12.134;2022-12-24T12:33:31;425.20;;;0.00;;
17710;SDS011;8975;57.718;12.134;2022-12-24T12:36:14;425.70;;;0.00;;
17710;SDS011;8975;57.718;12.134;2022-12-24T12:38:43;430.40;;;0.00;;
17710;SDS011;8975;57.718;12.134;2022-12-24T12:57:32;436.60;;;0.00;;
17710;SDS011;8975;57.718;12.134;2022-12-24T13:00:03;436.52;;;0.00;;
17710;SDS011;8975;57.718;12.134;2022-12-24T13:22:20;435.55;;;0.00;;
17710;SDS011;8975;57.718;12.134;2022-12-24T13:24:51;434.52;;;0.00;;
17710;SDS011;8975;57.718;12.134;2022-12-24T13:30:04;432.77;;;0.00;;
17710;SDS011;8975;57.718;12.134;2022-12-24T13:32:51;433.67;;;0.00;;
17710;SDS011;8975;57.718;12.134;2022-12-24T13:37:43;434.80;;;0.00;;
17710;SDS011;8975;57.718;12.134;2022-12-24T13:45:51;437.55;;;0.00;;
17710;SDS011;8975;57.718;12.134;2022-12-24T13:48:21;434.55;;;0.00;;
17710;SDS011;8975;57.718;12.134;2022-12-24T13:50:55;430.75;;;0.00;;
17710;SDS011;8975;57.718;12.134;2022-12-24T13:55:51;432.27;;;0.00;;
17710;SDS011;8975;57.718;12.134;2022-12-24T13:58:19;432.10;;;0.00;;
17710;SDS011;8975;57.718;12.134;2022-12-24T14:05:51;429.17;;;0.00;;
17710;SDS011;8975;57.718;12.134;2022-12-24T14:18:59;429.70;;;0.00;;
17710;SDS011;8975;57.718;12.134;2022-12-24T14:21:28;432.90;;;0.00;;
17710;SDS011;8975;57.718;12.134;2022-12-24T14:24:00;434.67;;;0.00;;
17710;SDS011;8975;57.718;12.134;2022-12-24T14:26:31;431.80;;;0.00;;
17710;SDS011;8975;57.718;12.134;2022-12-24T14:31:51;430.90;;;0.00;;
17710;SDS011;8975;57.718;12.134;2022-12-24T14:34:17;432.27;;;0.00;;
17710;SDS011;8975;57.718;12.134;2022-12-24T14:36:43;430.77;;;0.00;;
17710;SDS011;8975;57.718;12.134;2022-12-24T14:39:14;433.40;;;0.00;;
17710;SDS011;8975;57.718;12.134;2022-12-24T14:42:06;430.65;;;0.00;;
17710;SDS011;8975;57.718;12.134;2022-12-24T14:44:45;430.35;;;0.00;;
17710;SDS011;8975;57.718;12.134;2022-12-24T14:47:27;431.25;;;0.00;;
17710;SDS011;8975;57.718;12.134;2022-12-24T14:53:11;431.60;;;0.00;;
17710;SDS011;8975;57.718;12.134;2022-12-24T14:55:46;431.40;;;0.00;;
17710;SDS011;8975;57.718;12.134;2022-12-24T15:00:58;428.65;;;0.00;;
17710;SDS011;8975;57.718;12.134;2022-12-24T15:03:28;428.60;;;0.00;;
17710;SDS011;8975;57.718;12.134;2022-12-24T15:05:56;428.55;;;0.00;;
17710;SDS011;8975;57.718;12.134;2022-12-24T15:08:27;418.05;;;0.00;;
17710;SDS011;8975;57.718;12.134;2022-12-24T15:11:12;417.45;;;0.00;;
17710;SDS011;8975;57.718;12.134;2022-12-24T15:13:42;422.23;;;0.00;;
17710;SDS011;8975;57.718;12.134;2022-12-24T15:16:11;420.33;;;0.00;;
17710;SDS011;8975;57.718;12.134;2022-12-24T15:18:44;418.23;;;0.00;;
17710;SDS011;8975;57.718;12.134;2022-12-24T15:21:20;418.80;;;0.00;;
17710;SDS011;8975;57.718;12.134;2022-12-24T15:23:55;424.23;;;0.00;;
17710;SDS011;8975;57.718;12.134;2022-12-24T15:28:51;420.92;;;0.00;;
17710;SDS011;8975;57.718;12.134;2022-12-24T15:31:19;419.65;;;0.00;;
17710;SDS011;8975;57.718;12.134;2022-12-24T15:33:47;426.30;;;0.00;;
17710;SDS011;8975;57.718;12.134;2022-12-24T15:36:14;422.10;;;0.00;;
17710;SDS011;8975;57.718;12.134;2022-12-24T15:38:49;423.07;;;0.00;;
17710;SDS011;8975;57.718;12.134;2022-12-24T15:41:18;420.33;;;0.00;;
17710;SDS011;8975;57.718;12.134;2022-12-24T15:43:47;423.10;;;0.00;;
17710;SDS011;8975;57.718;12.134;2022-12-24T15:46:21;423.42;;;0.00;;
17710;SDS011;8975;57.718;12.134;2022-12-24T15:48:48;421.40;;;0.00;;
17710;SDS011;8975;57.718;12.134;2022-12-24T15:51:20;420.13;;;0.00;;
17710;SDS011;8975;57.718;12.134;2022-12-24T15:54:05;424.15;;;0.00;;
17710;SDS011;8975;57.718;12.134;2022-12-24T15:56:36;419.60;;;0.00;;
17710;SDS011;8975;57.718;12.134;2022-12-24T15:59:27;422.35;;;0.00;;
17710;SDS011;8975;57.718;12.134;2022-12-24T16:01:55;421.00;;;0.00;;
17710;SDS011;8975;57.718;12.134;2022-12-24T16:04:26;423.38;;;0.00;;
17710;SDS011;8975;57.718;12.134;2022-12-24T16:06:59;421.20;;;0.00;;
17710;SDS011;8975;57.718;12.134;2022-12-24T16:12:01;421.80;;;0.00;;
17710;SDS011;8975;57.718;12.134;2022-12-24T16:14:27;424.15;;;0.00;;
17710;SDS011;8975;57.718;12.134;2022-12-24T16:16:53;423.45;;;0.00;;
17710;SDS011;8975;57.718;12.134;2022-12-24T16:19:23;420.15;;;0.00;;
17710;SDS011;8975;57.718;12.134;2022-12-24T16:22:02;420.58;;;0.00;;
17710;SDS011;8975;57.718;12.134;2022-12-24T16:24:48;418.83;;;0.00;;
17710;SDS011;8975;57.718;12.134;2022-12-24T16:27:13;422.70;;;0.00;;
17710;SDS011;8975;57.718;12.134;2022-12-24T16:29:39;416.20;;;0.00;;
17710;SDS011;8975;57.718;12.134;2022-12-24T16:32:04;417.30;;;0.00;;
17710;SDS011;8975;57.718;12.134;2022-12-24T16:34:30;419.50;;;0.00;;
17710;SDS011;8975;57.718;12.134;2022-12-24T16:36:57;418.25;;;0.00;;
17710;SDS011;8975;57.718;12.134;2022-12-24T16:39:30;419.67;;;0.00;;
17710;SDS011;8975;57.718;12.134;2022-12-24T16:41:58;421.35;;;0.00;;
17710;SDS011;8975;57.718;12.134;2022-12-24T16:44:43;422.88;;;0.00;;
17710;SDS011;8975;57.718;12.134;2022-12-24T16:47:10;417.97;;;0.00;;
17710;SDS011;8975;57.718;12.134;2022-12-24T16:49:38;422.35;;;0.00;;
17710;SDS011;8975;57.718;12.134;2022-12-24T16:52:11;420.33;;;0.00;;
17710;SDS011;8975;57.718;12.134;2022-12-24T16:54:41;420.77;;;0.00;;
17710;SDS011;8975;57.718;12.134;2022-12-24T16:57:07;419.30;;;0.00;;
17710;SDS011;8975;57.718;12.134;2022-12-24T16:59:35;420.75;;;0.00;;
17710;SDS011;8975;57.718;12.134;2022-12-24T17:02:01;420.42;;;0.00;;
17710;SDS011;8975;57.718;12.134;2022-12-24T17:04:26;421.60;;;0.00;;